Flora, IL

3:28 AM CST on November 18, 2017 (GMT -0600)
Flora Municipal

Weather History for KFOA - February, 2013

Change the Weather History Date:

Monday, February 18, 2013

  Actual Average (KSLO) Record (KSLO)
Temperature  
Mean Temperature 44 °F -  
Max Temperature 56 °F 46 °F 71 °F (1961)
Min Temperature 32 °F 27 °F -6 °F (1993)
Degree Days  
Heating Degree Days 21    
Moisture  
Dew Point 37 °F    
Average Humidity 79    
Maximum Humidity 100    
Minimum Humidity 61    
Precipitation  
Precipitation 0.43 in - - ()
Sea Level Pressure  
Sea Level Pressure 29.84 in    
Wind  
Wind Speed 15 mph (South)    
Max Wind Speed 31 mph    
Max Gust Speed 40 mph    
Visibility 9 miles    
Events Rain    
Averages and records for this station are not official NWS values.
T = Trace of Precipitation, MM = Missing Value Source: NWS Daily Summary

Daily Weather History Graph

Daily Weather History Graph

Search for Another Location

Airport or City:

Trip Planner

Search our weather history database for the weather conditions in past years. The results will help you decide how hot, cold, wet, or windy it might be!

Date:

Astronomy

Feb. 18, 2013 Rise Set
Actual Time 6:40 AM CST 5:35 PM CST
Civil Twilight 6:13 AM CST 6:02 PM CST
Nautical Twilight 5:42 AM CST 6:33 PM CST
Astronomical Twilight 5:11 AM CST 7:04 PM CST
Moon 11:22 AM CST 1:18 AM CST
Length of Visible Light 11h 48m
Length of Day
10h 54m
First Quarter, 58% of the Moon is Illuminated
Feb 18
First Quarter
Feb 25
Full
Mar 4
Last Quarter
Mar 11
New
Mar 19
First Quarter

Hourly Weather History & Observations

Time (CST) Temp. Windchill Dew Point Humidity Pressure Visibility Wind Dir Wind Speed Gust Speed Precip Events Conditions
12:15 AM 32.9 °F 24.7 °F 23.9 °F 69% 30.03 in 10.0 mi SE 10.4 mph - N/A   Clear
12:35 AM 33.4 °F 26.6 °F 23.5 °F 67% 30.02 in 10.0 mi SSE 8.1 mph - N/A   Clear
12:55 AM 34.2 °F 26.8 °F 23.5 °F 65% 30.01 in 10.0 mi SE 9.2 mph - N/A   Clear
1:15 AM 35.1 °F 26.9 °F 23.4 °F 62% 30.00 in 10.0 mi SSE 11.5 mph - N/A   Clear
1:35 AM 34.9 °F 26.6 °F 23.7 °F 64% 29.99 in 10.0 mi SSE 11.5 mph - N/A   Clear
1:55 AM 34.7 °F 25.9 °F 23.9 °F 65% 29.99 in 10.0 mi SSE 12.7 mph - N/A   Clear
2:15 AM 35.1 °F 26.9 °F 23.9 °F 64% 29.98 in 10.0 mi SSE 11.5 mph - N/A   Clear
2:35 AM 34.7 °F 26.9 °F 24.3 °F 66% 29.98 in 10.0 mi SSE 10.4 mph - N/A   Clear
2:55 AM 34.5 °F 26.7 °F 24.4 °F 67% 29.97 in 10.0 mi SSE 10.4 mph - N/A   Clear
3:15 AM 34.3 °F 26.5 °F 24.6 °F 68% 29.97 in 10.0 mi SSE 10.4 mph - N/A   Clear
3:35 AM 34.3 °F 25.9 °F 24.8 °F 68% 29.96 in 10.0 mi SSE 11.5 mph - N/A   Clear
3:55 AM 34.3 °F 25.5 °F 25.3 °F 70% 29.96 in 10.0 mi SSE 12.7 mph - N/A   Clear
4:15 AM 34.5 °F 25.7 °F 25.5 °F 70% 29.96 in 10.0 mi SSE 12.7 mph - N/A   Clear
4:35 AM 34.3 °F 25.9 °F 25.7 °F 71% 29.96 in 10.0 mi SSE 11.5 mph - N/A   Clear
4:55 AM 34.3 °F 25.9 °F 26.2 °F 72% 29.95 in 10.0 mi SSE 11.5 mph - N/A   Clear
5:15 AM 34.3 °F 25.9 °F 26.6 °F 73% 29.95 in 10.0 mi SSE 11.5 mph - N/A   Clear
5:35 AM 34.7 °F 25.9 °F 27.1 °F 74% 29.94 in 10.0 mi SSE 12.7 mph - N/A   Clear
5:55 AM 35.1 °F 26.4 °F 27.7 °F 74% 29.94 in 10.0 mi SSE 12.7 mph - N/A   Clear
6:15 AM 35.8 °F 26.9 °F 28.4 °F 75% 29.93 in 10.0 mi SSE 13.8 mph 19.6 mph N/A   Clear
6:35 AM 36.5 °F 27.8 °F 29.1 °F 75% 29.93 in 10.0 mi SSE 13.8 mph - N/A   Clear
6:55 AM 37.0 °F 28.5 °F 29.8 °F 75% 29.93 in 10.0 mi South 13.8 mph - N/A   Clear
7:15 AM 37.4 °F 28.9 °F 30.2 °F 75% 29.93 in 10.0 mi South 13.8 mph - N/A   Clear
7:35 AM 38.3 °F 30.5 °F 31.3 °F 76% 29.93 in 10.0 mi South 12.7 mph - N/A   Clear
7:55 AM 41.0 °F 32.8 °F 32.0 °F 70% 29.93 in 10.0 mi South 16.1 mph - N/A   Clear
8:15 AM 41.9 °F 34.3 °F 33.8 °F 73% 29.92 in 10.0 mi South 15.0 mph - N/A   Clear
8:35 AM 44.6 °F 37.4 °F 35.6 °F 71% 29.92 in 10.0 mi South 16.1 mph - N/A   Clear
8:55 AM 46.6 °F - 37.4 °F 70% 29.91 in 10.0 mi South 19.6 mph 24.2 mph N/A   Clear
9:15 AM 47.5 °F - 38.3 °F 70% 29.90 in 10.0 mi South 19.6 mph 27.6 mph N/A   Clear
9:35 AM 48.2 °F - 38.8 °F 70% 29.90 in 10.0 mi South 19.6 mph 26.5 mph N/A   Clear
9:55 AM 49.3 °F - 40.1 °F 71% 29.90 in 10.0 mi South 20.7 mph 25.3 mph N/A   Scattered Clouds
10:15 AM 50.0 °F - 40.8 °F 71% 29.90 in 10.0 mi South 21.9 mph 26.5 mph N/A   Scattered Clouds
10:35 AM 52.0 °F - 41.7 °F 68% 29.89 in 10.0 mi South 19.6 mph 26.5 mph N/A   Scattered Clouds
10:55 AM 54.0 °F - 42.6 °F 65% 29.88 in 10.0 mi South 21.9 mph 32.2 mph N/A   Scattered Clouds
11:15 AM 53.8 °F - 42.4 °F 65% 29.88 in 10.0 mi South 20.7 mph 28.8 mph N/A   Scattered Clouds
11:35 AM 55.9 °F - 43.2 °F 62% 29.87 in 10.0 mi SSW 27.6 mph 33.4 mph N/A   Mostly Cloudy
11:55 AM 56.1 °F - 43.3 °F 62% 29.86 in 10.0 mi South 21.9 mph 31.1 mph N/A   Mostly Cloudy
12:15 PM 55.2 °F - 43.0 °F 63% 29.85 in 10.0 mi SSW 19.6 mph 39.1 mph N/A   Overcast
12:35 PM 55.4 °F - 42.8 °F 63% 29.84 in 10.0 mi SSW 23.0 mph 31.1 mph N/A   Overcast
12:55 PM 55.4 °F - 42.3 °F 61% 29.81 in 10.0 mi SSW 20.7 mph 38.0 mph N/A   Overcast
1:15 PM 55.4 °F - 42.1 °F 61% 29.80 in 10.0 mi South 17.3 mph 25.3 mph N/A   Overcast
1:35 PM 54.1 °F - 42.3 °F 64% 29.80 in 10.0 mi SSW 25.3 mph 34.5 mph N/A Rain Rain
1:55 PM 51.6 °F - 44.1 °F 75% 29.79 in 7.0 mi South 23.0 mph 29.9 mph N/A Rain Light Rain
2:15 PM 51.4 °F - 44.1 °F 76% 29.78 in 10.0 mi South 25.3 mph 34.5 mph 0.01 in Rain Light Rain
2:35 PM 51.1 °F - 44.8 °F 79% 29.78 in 10.0 mi South 20.7 mph 28.8 mph 0.01 in   Light Drizzle
2:55 PM 50.2 °F - 44.8 °F 82% 29.77 in 5.0 mi South 27.6 mph 32.2 mph 0.03 in Rain Rain
3:15 PM 49.3 °F - 45.7 °F 87% 29.77 in 10.0 mi South 26.5 mph 32.2 mph N/A Rain Light Rain
3:35 PM 48.7 °F - 44.2 °F 84% 29.75 in 7.0 mi South 23.0 mph 34.5 mph 0.01 in Rain Rain
3:55 PM 47.5 °F - 44.4 °F 89% 29.74 in 7.0 mi South 19.6 mph 28.8 mph 0.02 in Rain Light Rain
4:15 PM 47.3 °F - 45.0 °F 92% 29.72 in 10.0 mi South 20.7 mph 26.5 mph N/A   Drizzle
4:35 PM 47.5 °F - 45.0 °F 91% 29.71 in 10.0 mi South 19.6 mph 27.6 mph N/A   Overcast
4:55 PM 47.5 °F - 45.0 °F 91% 29.69 in 10.0 mi South 19.6 mph 25.3 mph N/A   Overcast
5:15 PM 47.8 °F - 44.6 °F 89% 29.68 in 10.0 mi South 19.6 mph 23.0 mph N/A Rain Light Rain
5:35 PM 48.4 °F - 44.8 °F 87% 29.67 in 7.0 mi South 24.2 mph 33.4 mph 0.02 in Rain Light Rain
5:55 PM 47.5 °F - 45.7 °F 93% 29.68 in 5.0 mi South 24.2 mph 33.4 mph 0.04 in Rain Light Rain
6:15 PM 47.3 °F - 46.4 °F 97% 29.67 in 7.0 mi South 21.9 mph 29.9 mph 0.03 in Rain Light Rain
6:35 PM 47.3 °F - 46.6 °F 97% 29.66 in 7.0 mi South 19.6 mph 29.9 mph 0.07 in Rain Light Rain
6:55 PM 47.5 °F - 46.8 °F 97% 29.66 in 7.0 mi South 23.0 mph 29.9 mph 0.10 in Rain Rain
7:15 PM 47.3 °F - 46.4 °F 97% 29.66 in 5.0 mi South 19.6 mph 26.5 mph 0.04 in Rain Rain
7:35 PM 46.8 °F - 46.4 °F 99% 29.67 in 5.0 mi SSW 17.3 mph 24.2 mph 0.12 in Rain Heavy Rain
7:55 PM 46.8 °F - 46.4 °F 99% 29.66 in 5.0 mi South 18.4 mph 24.2 mph 0.17 in Rain Rain
8:15 PM 46.8 °F - 46.4 °F 99% 29.63 in 4.0 mi South 18.4 mph - 0.05 in Rain Rain
8:35 PM 46.8 °F - 46.4 °F 99% 29.62 in 10.0 mi South 16.1 mph - 0.05 in Rain Light Rain
8:55 PM 47.3 °F - 47.3 °F 100% 29.62 in 10.0 mi South 15.0 mph 21.9 mph 0.06 in   Overcast
9:15 PM 47.5 °F - 47.3 °F 99% 29.64 in 10.0 mi SSW 16.1 mph 26.5 mph N/A Rain Light Rain
9:35 PM 43.3 °F 33.6 °F 43.2 °F 99% 29.69 in 10.0 mi WNW 26.5 mph 38.0 mph 0.01 in   Overcast
9:55 PM 39.7 °F 27.9 °F 39.6 °F 99% 29.72 in 10.0 mi WNW 31.1 mph 40.3 mph 0.01 in   Overcast
10:15 PM 37.4 °F 27.2 °F 37.4 °F 100% 29.75 in 10.0 mi WNW 19.6 mph 29.9 mph N/A   Overcast
10:35 PM 37.4 °F 26.6 °F 37.4 °F 100% 29.76 in 10.0 mi WNW 21.9 mph 27.6 mph N/A   Unknown
10:55 PM 37.0 °F 26.4 °F 36.7 °F 99% 29.78 in 10.0 mi WNW 20.7 mph 29.9 mph N/A   Overcast
11:15 PM 37.4 °F 28.5 °F 34.9 °F 91% 29.80 in 10.0 mi WNW 15.0 mph 28.8 mph N/A   Overcast
11:35 PM 37.4 °F 27.8 °F 34.7 °F 90% 29.82 in 10.0 mi WNW 17.3 mph 29.9 mph N/A   Overcast
11:55 PM 37.0 °F 27.0 °F 34.3 °F 90% 29.82 in 10.0 mi WNW 18.4 mph 28.8 mph N/A   Overcast